Bethune, Colorado
Current Conditions -  °F | °C
As of 2:53 PM on Wednesday 28 Jan 2015 (Local Time) from KITR Reporting Station
Clear Clear  
Wind Chill: 62°   Ceiling: Unl
Heat Index: 62°   Visibility: 10mi
Dew Point: 27°   Wind: 29mph
Humidity: 26%   Direction: 330°NNW
Pressure: 30"   Gusts: 37mph
Location:  39.3°N, 102.42°W
Report Text: KITR 282153Z AUTO 33025G32KT 10SM CLR 17/M03 A3000 RMK AO2 PK WND 33041/2101 SLP139 T01671028
Loading
Personal Weather Stations






























Interactive Weather Map New forecast layout! Learn more

10-Day Weather Forecast

Advertisements
Track Severe Weather on mobile